Chem Orion — V7GZ9 — position and weather

sailwx.info

Track history (hours):
 
Tides and Currents Weather Stations Pressure Air Temp Water Temp Dewpoint Dewpoint Depression Visibility Wind Speed Wind Dir Waves Ship Positions

Chem Orion

Last reported at 2014-Jul-02 11:11 UTC. Time now 2014-Jul-24 15:25 UTC.
Position N 23°06' W 017°41'.
Warning: this ship's position is 22 days out of date.

Length 125 m; draft 7.2 m.

Type: Ship (hazmat cat D). MMSI: 538002197.

Date/timePositionNaut miles runAvg speedWind from/ knotsBaromVisibWave heightAir tempDewpointWater temp
2014-Jul-02 11:11N 23°06' W 017°41'357 8.5
2014-Jun-30 17:14N 28°29' W 014°51'24311.7
2014-Jun-29 20:26N 31°24' W 011°37'3712.2
2014-Jun-29 17:25N 31°49' W 011°06'  
2014-Jun-27 08:29N 37°30' W 000°39'1111.4
2014-Jun-27 07:33N 37°38' W 000°31'1211.6
2014-Jun-27 06:32N 37°48' W 000°22'4911.1
2014-Jun-27 02:10N 38°29' E 000°12'2011.3
2014-Jun-27 00:26N 38°45' E 000°25'1011.7
2014-Jun-26 23:33N 38°53' E 000°34'1311.9
2014-Jun-26 22:28N 39°03' E 000°44'1111.5
2014-Jun-26 21:33N 39°12' E 000°52'1211.5
2014-Jun-26 20:30N 39°21' E 001°02'1111.3
2014-Jun-26 19:31N 39°30' E 001°11'1511.6
2014-Jun-26 18:12N 39°42' E 001°23'710.5
2014-Jun-26 17:33N 39°47' E 001°29'1111.2
2014-Jun-26 16:33N 39°56' E 001°38'1111.4
2014-Jun-26 15:34N 40°05' E 001°47'1111.1
2014-Jun-26 14:34N 40°13' E 001°56'1111.3
2014-Jun-26 13:33N 40°22' E 002°05'1111.2
2014-Jun-26 12:33N 40°31' E 002°15'1111.2
2014-Jun-26 11:34N 40°40' E 002°24'1111.0
2014-Jun-26 10:33N 40°48' E 002°33'1111.2
2014-Jun-26 09:34N 40°57' E 002°42'1111.2
2014-Jun-26 08:33N 41°06' E 002°51'1212.0
2014-Jun-26 07:33N 41°15' E 003°01'1211.7
2014-Jun-26 06:33N 41°24' E 003°11'1211.9
2014-Jun-26 05:33N 41°34' E 003°20'1212.1
2014-Jun-26 04:33N 41°43' E 003°31'1111.0
2014-Jun-26 03:33N 41°52' E 003°40'1312.7
2014-Jun-26 02:33N 42°02' E 003°50'1111.4
2014-Jun-26 01:33N 42°11' E 004°00'1111.5
2014-Jun-26 00:34N 42°19' E 004°10'1211.5
2014-Jun-25 23:33N 42°28' E 004°20'1211.7
2014-Jun-25 22:33N 42°38' E 004°29'1211.6
2014-Jun-25 21:32N 42°47' E 004°39'1110.9
2014-Jun-25 20:33N 42°55' E 004°48'1010.4
2014-Jun-25 19:33N 43°03' E 004°57'1010.2
2014-Jun-25 18:32N 43°14' E 005°01'1010.4
2014-Jun-25 17:33N 43°23' E 004°57'5 5.4
2014-Jun-25 16:34N 43°26' E 004°50'0 0.0
2014-Jun-25 15:33N 43°26' E 004°50'0 0.0
2014-Jun-25 14:33N 43°26' E 004°50'0 0.0
2014-Jun-25 13:33N 43°26' E 004°50'0 0.0
2014-Jun-25 12:33N 43°26' E 004°50'0 0.0
2014-Jun-25 11:33N 43°26' E 004°50'0 0.0
2014-Jun-25 10:33N 43°26' E 004°50'0 0.0
2014-Jun-25 09:33N 43°26' E 004°50'0 0.0
2014-Jun-25 08:34N 43°26' E 004°50'0 0.0
2014-Jun-25 07:33N 43°26' E 004°50'0 0.0
2014-Jun-25 06:33N 43°26' E 004°50'0 0.0
2014-Jun-25 05:33N 43°26' E 004°50'0 0.0
2014-Jun-25 04:34N 43°26' E 004°50'0 0.0
2014-Jun-25 03:34N 43°26' E 004°50'0 0.0
2014-Jun-25 02:33N 43°26' E 004°50'0 0.0
2014-Jun-25 01:33N 43°26' E 004°50'0 0.0
2014-Jun-25 00:33N 43°26' E 004°50'0 0.0
2014-Jun-24 23:33N 43°26' E 004°50'0 0.0
2014-Jun-24 22:33N 43°26' E 004°50'0 0.0
2014-Jun-24 21:33N 43°26' E 004°50'0 0.0
2014-Jun-24 20:33N 43°26' E 004°50'0 0.0
2014-Jun-24 19:33N 43°26' E 004°50'0 0.0
2014-Jun-24 18:33N 43°26' E 004°50'0 0.0
2014-Jun-24 17:34N 43°26' E 004°50'0 0.0
2014-Jun-24 16:33N 43°26' E 004°50'0 0.0
2014-Jun-24 15:34N 43°26' E 004°50'0 0.0
2014-Jun-24 14:33N 43°26' E 004°50'0 0.0
2014-Jun-24 13:34N 43°26' E 004°50'0 0.0
2014-Jun-24 12:33N 43°26' E 004°50'0 0.0
2014-Jun-24 11:33N 43°26' E 004°50'4 4.4
2014-Jun-24 10:33N 43°23' E 004°55'9 8.6
2014-Jun-24 09:33N 43°16' E 005°01'5 4.6
2014-Jun-24 08:33N 43°12' E 005°03'0 0.3
2014-Jun-24 07:34N 43°11' E 005°03'3 3.1
2014-Jun-24 06:34N 43°09' E 005°05'1312.6
2014-Jun-24 05:32N 42°56' E 005°11'1111.1
2014-Jun-24 04:34N 42°50' E 005°23'1312.8
2014-Jun-24 03:34N 42°45' E 005°39'1312.6
2014-Jun-24 02:34N 42°43' E 005°56'1312.9
2014-Jun-24 01:33N 42°43' E 006°13'1312.7
2014-Jun-24 00:33N 42°44' E 006°30'1212.1
2014-Jun-23 23:34N 42°43' E 006°47'1211.6
2014-Jun-23 22:33N 42°45' E 007°03'1212.1
2014-Jun-23 21:33N 42°52' E 007°15'1212.0
2014-Jun-23 20:33N 42°59' E 007°28'1212.0
2014-Jun-23 19:33N 43°07' E 007°41'1211.8
2014-Jun-23 18:33N 43°14' E 007°54'1211.9
2014-Jun-23 17:34N 43°21' E 008°07'1212.2
2014-Jun-23 16:33N 43°29' E 008°20'1211.7
2014-Jun-23 15:33N 43°38' E 008°31'1211.8
2014-Jun-23 14:34N 43°48' E 008°39'2311.6
2014-Jun-23 12:33N 44°09' E 008°53'1110.8
2014-Jun-23 11:33N 44°19' E 008°58'6 5.6
2014-Jun-23 10:33N 44°24' E 008°55'0 0.0
2014-Jun-23 09:33N 44°24' E 008°55'0 0.0
2014-Jun-23 08:30N 44°24' E 008°55'0 0.0
2014-Jun-23 07:30N 44°24' E 008°55'0 0.0
2014-Jun-23 05:30N 44°24' E 008°55'0 0.0
2014-Jun-23 04:21N 44°24' E 008°55'0 0.0
2014-Jun-23 03:33N 44°24' E 008°55'0 0.0
2014-Jun-23 02:33N 44°24' E 008°55'0 0.0
2014-Jun-23 01:33N 44°24' E 008°55'0 0.0
2014-Jun-23 00:21N 44°24' E 008°55'0 0.0
2014-Jun-22 23:33N 44°24' E 008°55'0 0.0
2014-Jun-22 22:33N 44°24' E 008°55'0 0.0
2014-Jun-22 21:30N 44°24' E 008°55'0 0.0
2014-Jun-22 20:33N 44°24' E 008°55'0 0.0
2014-Jun-22 19:33N 44°24' E 008°55'0 0.0
2014-Jun-22 18:30N 44°24' E 008°55'0 0.0
2014-Jun-22 17:27N 44°24' E 008°55'0 0.0
2014-Jun-22 16:33N 44°24' E 008°55'0 0.0
2014-Jun-22 15:33N 44°24' E 008°55'0 0.0
2014-Jun-22 14:33N 44°24' E 008°55'0 0.0
2014-Jun-22 13:27N 44°24' E 008°55'0 0.0
2014-Jun-22 12:27N 44°24' E 008°55'0 0.0
2014-Jun-22 11:27N 44°24' E 008°55'  
Track history (hours):
 
Tides and Currents Weather Stations Pressure Air Temp Water Temp Dewpoint Dewpoint Depression Visibility Wind Speed Wind Dir Waves Ship Positions

Chem Orion

Last reported at 2014-Jul-02 11:11 UTC. Time now 2014-Jul-24 15:25 UTC.
Position N 23°06' W 017°41'.
Warning: this ship's position is 22 days out of date.

Length 125 m; draft 7.2 m.

Type: Ship (hazmat cat D). MMSI: 538002197.

Date/timePositionNaut miles runAvg speedWind from/ knotsBaromVisibWave heightAir tempDewpointWater temp
2014-Jul-02 11:11N 23°06' W 017°41'357 8.5
2014-Jun-30 17:14N 28°29' W 014°51'24311.7
2014-Jun-29 20:26N 31°24' W 011°37'3712.2
2014-Jun-29 17:25N 31°49' W 011°06'  
2014-Jun-27 08:29N 37°30' W 000°39'1111.4
2014-Jun-27 07:33N 37°38' W 000°31'1211.6
2014-Jun-27 06:32N 37°48' W 000°22'4911.1
2014-Jun-27 02:10N 38°29' E 000°12'2011.3
2014-Jun-27 00:26N 38°45' E 000°25'1011.7
2014-Jun-26 23:33N 38°53' E 000°34'1311.9
2014-Jun-26 22:28N 39°03' E 000°44'1111.5
2014-Jun-26 21:33N 39°12' E 000°52'1211.5
2014-Jun-26 20:30N 39°21' E 001°02'1111.3
2014-Jun-26 19:31N 39°30' E 001°11'1511.6
2014-Jun-26 18:12N 39°42' E 001°23'710.5
2014-Jun-26 17:33N 39°47' E 001°29'1111.2
2014-Jun-26 16:33N 39°56' E 001°38'1111.4
2014-Jun-26 15:34N 40°05' E 001°47'1111.1
2014-Jun-26 14:34N 40°13' E 001°56'1111.3
2014-Jun-26 13:33N 40°22' E 002°05'1111.2
2014-Jun-26 12:33N 40°31' E 002°15'1111.2
2014-Jun-26 11:34N 40°40' E 002°24'1111.0
2014-Jun-26 10:33N 40°48' E 002°33'1111.2
2014-Jun-26 09:34N 40°57' E 002°42'1111.2
2014-Jun-26 08:33N 41°06' E 002°51'1212.0
2014-Jun-26 07:33N 41°15' E 003°01'1211.7
2014-Jun-26 06:33N 41°24' E 003°11'1211.9
2014-Jun-26 05:33N 41°34' E 003°20'1212.1
2014-Jun-26 04:33N 41°43' E 003°31'1111.0
2014-Jun-26 03:33N 41°52' E 003°40'1312.7
2014-Jun-26 02:33N 42°02' E 003°50'1111.4
2014-Jun-26 01:33N 42°11' E 004°00'1111.5
2014-Jun-26 00:34N 42°19' E 004°10'1211.5
2014-Jun-25 23:33N 42°28' E 004°20'1211.7
2014-Jun-25 22:33N 42°38' E 004°29'1211.6
2014-Jun-25 21:32N 42°47' E 004°39'1110.9
2014-Jun-25 20:33N 42°55' E 004°48'1010.4
2014-Jun-25 19:33N 43°03' E 004°57'1010.2
2014-Jun-25 18:32N 43°14' E 005°01'1010.4
2014-Jun-25 17:33N 43°23' E 004°57'5 5.4
2014-Jun-25 16:34N 43°26' E 004°50'0 0.0
2014-Jun-25 15:33N 43°26' E 004°50'0 0.0
2014-Jun-25 14:33N 43°26' E 004°50'0 0.0
2014-Jun-25 13:33N 43°26' E 004°50'0 0.0
2014-Jun-25 12:33N 43°26' E 004°50'0 0.0
2014-Jun-25 11:33N 43°26' E 004°50'0 0.0
2014-Jun-25 10:33N 43°26' E 004°50'0 0.0
2014-Jun-25 09:33N 43°26' E 004°50'0 0.0
2014-Jun-25 08:34N 43°26' E 004°50'0 0.0
2014-Jun-25 07:33N 43°26' E 004°50'0 0.0
2014-Jun-25 06:33N 43°26' E 004°50'0 0.0
2014-Jun-25 05:33N 43°26' E 004°50'0 0.0
2014-Jun-25 04:34N 43°26' E 004°50'0 0.0
2014-Jun-25 03:34N 43°26' E 004°50'0 0.0
2014-Jun-25 02:33N 43°26' E 004°50'0 0.0
2014-Jun-25 01:33N 43°26' E 004°50'0 0.0
2014-Jun-25 00:33N 43°26' E 004°50'0 0.0
2014-Jun-24 23:33N 43°26' E 004°50'0 0.0
2014-Jun-24 22:33N 43°26' E 004°50'0 0.0
2014-Jun-24 21:33N 43°26' E 004°50'0 0.0
2014-Jun-24 20:33N 43°26' E 004°50'0 0.0
2014-Jun-24 19:33N 43°26' E 004°50'0 0.0
2014-Jun-24 18:33N 43°26' E 004°50'0 0.0
2014-Jun-24 17:34N 43°26' E 004°50'0 0.0
2014-Jun-24 16:33N 43°26' E 004°50'0 0.0
2014-Jun-24 15:34N 43°26' E 004°50'0 0.0
2014-Jun-24 14:33N 43°26' E 004°50'0 0.0
2014-Jun-24 13:34N 43°26' E 004°50'0 0.0
2014-Jun-24 12:33N 43°26' E 004°50'0 0.0
2014-Jun-24 11:33N 43°26' E 004°50'4 4.4
2014-Jun-24 10:33N 43°23' E 004°55'9 8.6
2014-Jun-24 09:33N 43°16' E 005°01'5 4.6
2014-Jun-24 08:33N 43°12' E 005°03'0 0.3
2014-Jun-24 07:34N 43°11' E 005°03'3 3.1
2014-Jun-24 06:34N 43°09' E 005°05'1312.6
2014-Jun-24 05:32N 42°56' E 005°11'1111.1
2014-Jun-24 04:34N 42°50' E 005°23'1312.8
2014-Jun-24 03:34N 42°45' E 005°39'1312.6
2014-Jun-24 02:34N 42°43' E 005°56'1312.9
2014-Jun-24 01:33N 42°43' E 006°13'1312.7
2014-Jun-24 00:33N 42°44' E 006°30'1212.1
2014-Jun-23 23:34N 42°43' E 006°47'1211.6
2014-Jun-23 22:33N 42°45' E 007°03'1212.1
2014-Jun-23 21:33N 42°52' E 007°15'1212.0
2014-Jun-23 20:33N 42°59' E 007°28'1212.0
2014-Jun-23 19:33N 43°07' E 007°41'1211.8
2014-Jun-23 18:33N 43°14' E 007°54'1211.9
2014-Jun-23 17:34N 43°21' E 008°07'1212.2
2014-Jun-23 16:33N 43°29' E 008°20'1211.7
2014-Jun-23 15:33N 43°38' E 008°31'1211.8
2014-Jun-23 14:34N 43°48' E 008°39'2311.6
2014-Jun-23 12:33N 44°09' E 008°53'1110.8
2014-Jun-23 11:33N 44°19' E 008°58'6 5.6
2014-Jun-23 10:33N 44°24' E 008°55'0 0.0
2014-Jun-23 09:33N 44°24' E 008°55'0 0.0
2014-Jun-23 08:30N 44°24' E 008°55'0 0.0
2014-Jun-23 07:30N 44°24' E 008°55'0 0.0
2014-Jun-23 05:30N 44°24' E 008°55'0 0.0
2014-Jun-23 04:21N 44°24' E 008°55'0 0.0
2014-Jun-23 03:33N 44°24' E 008°55'0 0.0
2014-Jun-23 02:33N 44°24' E 008°55'0 0.0
2014-Jun-23 01:33N 44°24' E 008°55'0 0.0
2014-Jun-23 00:21N 44°24' E 008°55'0 0.0
2014-Jun-22 23:33N 44°24' E 008°55'0 0.0
2014-Jun-22 22:33N 44°24' E 008°55'0 0.0
2014-Jun-22 21:30N 44°24' E 008°55'0 0.0
2014-Jun-22 20:33N 44°24' E 008°55'0 0.0
2014-Jun-22 19:33N 44°24' E 008°55'0 0.0
2014-Jun-22 18:30N 44°24' E 008°55'0 0.0
2014-Jun-22 17:27N 44°24' E 008°55'0 0.0
2014-Jun-22 16:33N 44°24' E 008°55'0 0.0
2014-Jun-22 15:33N 44°24' E 008°55'0 0.0
2014-Jun-22 14:33N 44°24' E 008°55'0 0.0
2014-Jun-22 13:27N 44°24' E 008°55'0 0.0
2014-Jun-22 12:27N 44°24' E 008°55'0 0.0
2014-Jun-22 11:27N 44°24' E 008°55'  

Dump ship's entire track history